sensor_id;sensor_type;location;lat;lon;timestamp;P1;durP1;ratioP1;P2;durP2;ratioP2
809;SDS011;387;48.772;9.186;2024-02-23T00:01:31;0.77;;;0.50;;
809;SDS011;387;48.772;9.186;2024-02-23T00:03:57;0.87;;;0.60;;
809;SDS011;387;48.772;9.186;2024-02-23T00:06:22;0.90;;;0.60;;
809;SDS011;387;48.772;9.186;2024-02-23T00:08:52;0.93;;;0.50;;
809;SDS011;387;48.772;9.186;2024-02-23T00:11:19;1.93;;;0.70;;
809;SDS011;387;48.772;9.186;2024-02-23T00:13:45;1.13;;;0.60;;
809;SDS011;387;48.772;9.186;2024-02-23T00:16:11;1.40;;;0.50;;
809;SDS011;387;48.772;9.186;2024-02-23T00:18:37;0.80;;;0.50;;
809;SDS011;387;48.772;9.186;2024-02-23T00:21:03;2.33;;;0.70;;
809;SDS011;387;48.772;9.186;2024-02-23T00:23:29;1.37;;;0.60;;
809;SDS011;387;48.772;9.186;2024-02-23T00:25:54;0.70;;;0.50;;
809;SDS011;387;48.772;9.186;2024-02-23T00:28:20;2.10;;;0.67;;
809;SDS011;387;48.772;9.186;2024-02-23T00:30:46;0.60;;;0.30;;
809;SDS011;387;48.772;9.186;2024-02-23T00:33:12;0.60;;;0.50;;
809;SDS011;387;48.772;9.186;2024-02-23T00:35:38;3.60;;;0.70;;
809;SDS011;387;48.772;9.186;2024-02-23T00:38:03;0.83;;;0.60;;
809;SDS011;387;48.772;9.186;2024-02-23T00:40:29;1.57;;;0.60;;
809;SDS011;387;48.772;9.186;2024-02-23T00:42:55;0.93;;;0.60;;
809;SDS011;387;48.772;9.186;2024-02-23T00:45:20;1.23;;;0.53;;
809;SDS011;387;48.772;9.186;2024-02-23T00:47:46;0.83;;;0.53;;
809;SDS011;387;48.772;9.186;2024-02-23T00:50:13;0.90;;;0.50;;
809;SDS011;387;48.772;9.186;2024-02-23T00:52:39;1.20;;;0.70;;
809;SDS011;387;48.772;9.186;2024-02-23T00:55:06;1.03;;;0.60;;
809;SDS011;387;48.772;9.186;2024-02-23T00:57:33;1.93;;;0.70;;
809;SDS011;387;48.772;9.186;2024-02-23T01:00:00;1.57;;;0.60;;
809;SDS011;387;48.772;9.186;2024-02-23T01:02:27;1.90;;;0.70;;
809;SDS011;387;48.772;9.186;2024-02-23T01:04:52;1.10;;;0.73;;
809;SDS011;387;48.772;9.186;2024-02-23T01:07:21;5.33;;;0.83;;
809;SDS011;387;48.772;9.186;2024-02-23T01:09:47;3.17;;;0.63;;
809;SDS011;387;48.772;9.186;2024-02-23T01:12:13;1.40;;;0.60;;
809;SDS011;387;48.772;9.186;2024-02-23T01:14:38;0.97;;;0.67;;
809;SDS011;387;48.772;9.186;2024-02-23T01:17:04;5.03;;;0.93;;
809;SDS011;387;48.772;9.186;2024-02-23T01:19:30;1.00;;;0.57;;
809;SDS011;387;48.772;9.186;2024-02-23T01:21:55;2.80;;;0.60;;
809;SDS011;387;48.772;9.186;2024-02-23T01:24:25;1.27;;;0.50;;
809;SDS011;387;48.772;9.186;2024-02-23T01:26:53;5.43;;;1.00;;
809;SDS011;387;48.772;9.186;2024-02-23T01:29:19;2.20;;;0.90;;
809;SDS011;387;48.772;9.186;2024-02-23T01:31:45;2.40;;;0.83;;
809;SDS011;387;48.772;9.186;2024-02-23T01:34:10;1.60;;;1.10;;
809;SDS011;387;48.772;9.186;2024-02-23T01:36:36;4.33;;;1.10;;
809;SDS011;387;48.772;9.186;2024-02-23T01:39:02;1.80;;;0.80;;
809;SDS011;387;48.772;9.186;2024-02-23T01:41:29;1.17;;;0.70;;
809;SDS011;387;48.772;9.186;2024-02-23T01:43:54;2.57;;;0.83;;
809;SDS011;387;48.772;9.186;2024-02-23T01:46:20;1.13;;;0.70;;
809;SDS011;387;48.772;9.186;2024-02-23T01:48:46;1.33;;;0.80;;
809;SDS011;387;48.772;9.186;2024-02-23T01:51:11;3.87;;;0.90;;
809;SDS011;387;48.772;9.186;2024-02-23T01:53:38;2.10;;;0.90;;
809;SDS011;387;48.772;9.186;2024-02-23T01:56:04;2.10;;;0.80;;
809;SDS011;387;48.772;9.186;2024-02-23T01:58:30;3.90;;;0.90;;
809;SDS011;387;48.772;9.186;2024-02-23T02:01:00;2.60;;;0.73;;
809;SDS011;387;48.772;9.186;2024-02-23T02:03:26;1.50;;;0.83;;
809;SDS011;387;48.772;9.186;2024-02-23T02:05:52;4.83;;;0.90;;
809;SDS011;387;48.772;9.186;2024-02-23T02:08:19;2.70;;;0.90;;
809;SDS011;387;48.772;9.186;2024-02-23T02:10:45;3.50;;;0.90;;
809;SDS011;387;48.772;9.186;2024-02-23T02:13:12;0.90;;;0.70;;
809;SDS011;387;48.772;9.186;2024-02-23T02:15:38;1.70;;;1.27;;
809;SDS011;387;48.772;9.186;2024-02-23T02:18:04;1.20;;;0.87;;
809;SDS011;387;48.772;9.186;2024-02-23T02:20:32;2.17;;;0.97;;
809;SDS011;387;48.772;9.186;2024-02-23T02:22:58;2.43;;;0.90;;
809;SDS011;387;48.772;9.186;2024-02-23T02:25:24;1.47;;;1.10;;
809;SDS011;387;48.772;9.186;2024-02-23T02:27:49;1.80;;;0.80;;
809;SDS011;387;48.772;9.186;2024-02-23T02:30:15;3.53;;;0.97;;
809;SDS011;387;48.772;9.186;2024-02-23T02:32:41;2.70;;;0.90;;
809;SDS011;387;48.772;9.186;2024-02-23T02:35:07;3.17;;;0.83;;
809;SDS011;387;48.772;9.186;2024-02-23T02:37:33;1.00;;;0.70;;
809;SDS011;387;48.772;9.186;2024-02-23T02:39:59;1.63;;;1.00;;
809;SDS011;387;48.772;9.186;2024-02-23T02:42:25;1.00;;;0.60;;
809;SDS011;387;48.772;9.186;2024-02-23T02:44:50;1.73;;;0.77;;
809;SDS011;387;48.772;9.186;2024-02-23T02:47:16;5.23;;;1.23;;
809;SDS011;387;48.772;9.186;2024-02-23T02:49:42;5.40;;;0.87;;
809;SDS011;387;48.772;9.186;2024-02-23T02:52:07;1.80;;;0.90;;
809;SDS011;387;48.772;9.186;2024-02-23T02:54:33;1.67;;;0.80;;
809;SDS011;387;48.772;9.186;2024-02-23T02:56:59;1.63;;;0.77;;
809;SDS011;387;48.772;9.186;2024-02-23T02:59:24;1.60;;;0.80;;
809;SDS011;387;48.772;9.186;2024-02-23T03:01:50;1.17;;;0.70;;
809;SDS011;387;48.772;9.186;2024-02-23T03:04:15;3.67;;;1.17;;
809;SDS011;387;48.772;9.186;2024-02-23T03:06:41;2.80;;;0.90;;
809;SDS011;387;48.772;9.186;2024-02-23T03:09:07;2.83;;;0.93;;
809;SDS011;387;48.772;9.186;2024-02-23T03:11:33;1.10;;;0.70;;
809;SDS011;387;48.772;9.186;2024-02-23T03:13:58;2.20;;;0.80;;
809;SDS011;387;48.772;9.186;2024-02-23T03:16:24;1.73;;;0.70;;
809;SDS011;387;48.772;9.186;2024-02-23T03:18:54;4.10;;;1.00;;
809;SDS011;387;48.772;9.186;2024-02-23T03:21:19;1.60;;;0.80;;
809;SDS011;387;48.772;9.186;2024-02-23T03:23:45;4.10;;;0.90;;
809;SDS011;387;48.772;9.186;2024-02-23T03:26:11;1.63;;;0.70;;
809;SDS011;387;48.772;9.186;2024-02-23T03:28:36;1.20;;;0.77;;
809;SDS011;387;48.772;9.186;2024-02-23T03:31:02;1.20;;;0.70;;
809;SDS011;387;48.772;9.186;2024-02-23T03:33:27;3.23;;;0.90;;
809;SDS011;387;48.772;9.186;2024-02-23T03:35:53;2.70;;;0.87;;
809;SDS011;387;48.772;9.186;2024-02-23T03:38:20;2.00;;;0.90;;
809;SDS011;387;48.772;9.186;2024-02-23T03:40:46;1.53;;;0.70;;
809;SDS011;387;48.772;9.186;2024-02-23T03:43:11;4.00;;;0.90;;
809;SDS011;387;48.772;9.186;2024-02-23T03:45:37;4.17;;;1.10;;
809;SDS011;387;48.772;9.186;2024-02-23T03:48:03;2.40;;;1.40;;
809;SDS011;387;48.772;9.186;2024-02-23T03:50:29;1.87;;;1.10;;
809;SDS011;387;48.772;9.186;2024-02-23T03:52:55;2.23;;;1.00;;
809;SDS011;387;48.772;9.186;2024-02-23T03:55:21;1.87;;;0.90;;
809;SDS011;387;48.772;9.186;2024-02-23T03:57:47;3.43;;;1.00;;
809;SDS011;387;48.772;9.186;2024-02-23T04:00:13;1.10;;;0.77;;
809;SDS011;387;48.772;9.186;2024-02-23T04:02:39;4.07;;;1.10;;
809;SDS011;387;48.772;9.186;2024-02-23T04:05:05;4.23;;;1.43;;
809;SDS011;387;48.772;9.186;2024-02-23T04:07:31;1.73;;;0.90;;
809;SDS011;387;48.772;9.186;2024-02-23T04:09:57;3.80;;;0.93;;
809;SDS011;387;48.772;9.186;2024-02-23T04:12:23;1.53;;;0.73;;
809;SDS011;387;48.772;9.186;2024-02-23T04:14:48;2.00;;;1.03;;
809;SDS011;387;48.772;9.186;2024-02-23T04:17:15;1.97;;;0.90;;
809;SDS011;387;48.772;9.186;2024-02-23T04:19:41;3.17;;;0.80;;
809;SDS011;387;48.772;9.186;2024-02-23T04:22:07;3.67;;;0.83;;
809;SDS011;387;48.772;9.186;2024-02-23T04:24:35;3.27;;;1.03;;
809;SDS011;387;48.772;9.186;2024-02-23T04:27:02;1.90;;;1.20;;
809;SDS011;387;48.772;9.186;2024-02-23T04:29:29;2.57;;;0.90;;
809;SDS011;387;48.772;9.186;2024-02-23T04:31:54;2.47;;;0.80;;
809;SDS011;387;48.772;9.186;2024-02-23T04:34:20;4.20;;;1.10;;
809;SDS011;387;48.772;9.186;2024-02-23T04:36:46;2.40;;;0.90;;
809;SDS011;387;48.772;9.186;2024-02-23T04:39:11;5.07;;;1.23;;
809;SDS011;387;48.772;9.186;2024-02-23T04:41:37;2.10;;;0.83;;
809;SDS011;387;48.772;9.186;2024-02-23T04:44:03;4.40;;;1.27;;
809;SDS011;387;48.772;9.186;2024-02-23T04:46:28;2.90;;;1.00;;
809;SDS011;387;48.772;9.186;2024-02-23T04:48:55;3.30;;;1.13;;
809;SDS011;387;48.772;9.186;2024-02-23T04:51:21;1.50;;;0.90;;
809;SDS011;387;48.772;9.186;2024-02-23T04:53:48;4.93;;;0.93;;
809;SDS011;387;48.772;9.186;2024-02-23T04:56:14;1.97;;;0.70;;
809;SDS011;387;48.772;9.186;2024-02-23T04:58:40;1.20;;;0.90;;
809;SDS011;387;48.772;9.186;2024-02-23T05:01:07;4.13;;;0.80;;
809;SDS011;387;48.772;9.186;2024-02-23T05:03:33;3.73;;;0.90;;
809;SDS011;387;48.772;9.186;2024-02-23T05:05:59;3.07;;;0.80;;
809;SDS011;387;48.772;9.186;2024-02-23T05:08:24;2.43;;;1.00;;
809;SDS011;387;48.772;9.186;2024-02-23T05:10:51;2.80;;;0.97;;
809;SDS011;387;48.772;9.186;2024-02-23T05:13:17;2.70;;;1.13;;
809;SDS011;387;48.772;9.186;2024-02-23T05:15:42;3.53;;;1.23;;
809;SDS011;387;48.772;9.186;2024-02-23T05:18:08;3.90;;;0.80;;
809;SDS011;387;48.772;9.186;2024-02-23T05:20:33;3.27;;;1.20;;
809;SDS011;387;48.772;9.186;2024-02-23T05:22:59;1.77;;;0.90;;
809;SDS011;387;48.772;9.186;2024-02-23T05:25:25;6.73;;;1.03;;
809;SDS011;387;48.772;9.186;2024-02-23T05:27:51;5.80;;;0.97;;
809;SDS011;387;48.772;9.186;2024-02-23T05:30:17;5.60;;;2.17;;
809;SDS011;387;48.772;9.186;2024-02-23T05:32:43;1.20;;;0.73;;
809;SDS011;387;48.772;9.186;2024-02-23T05:35:09;1.60;;;0.90;;
809;SDS011;387;48.772;9.186;2024-02-23T05:37:35;3.23;;;1.40;;
809;SDS011;387;48.772;9.186;2024-02-23T05:40:02;1.90;;;1.00;;
809;SDS011;387;48.772;9.186;2024-02-23T05:42:31;5.00;;;1.00;;
809;SDS011;387;48.772;9.186;2024-02-23T05:44:57;2.70;;;1.00;;
809;SDS011;387;48.772;9.186;2024-02-23T05:47:23;1.40;;;0.77;;
809;SDS011;387;48.772;9.186;2024-02-23T05:49:49;4.20;;;0.90;;
809;SDS011;387;48.772;9.186;2024-02-23T05:52:15;1.80;;;1.00;;
809;SDS011;387;48.772;9.186;2024-02-23T05:54:41;2.13;;;0.90;;
809;SDS011;387;48.772;9.186;2024-02-23T05:57:07;3.07;;;0.80;;
809;SDS011;387;48.772;9.186;2024-02-23T05:59:33;2.00;;;1.00;;
809;SDS011;387;48.772;9.186;2024-02-23T06:01:59;4.80;;;1.00;;
809;SDS011;387;48.772;9.186;2024-02-23T06:04:24;2.67;;;1.10;;
809;SDS011;387;48.772;9.186;2024-02-23T06:06:50;4.30;;;1.10;;
809;SDS011;387;48.772;9.186;2024-02-23T06:09:16;5.13;;;1.37;;
809;SDS011;387;48.772;9.186;2024-02-23T06:11:42;1.57;;;1.07;;
809;SDS011;387;48.772;9.186;2024-02-23T06:14:07;3.57;;;1.20;;
809;SDS011;387;48.772;9.186;2024-02-23T06:16:33;1.97;;;0.90;;
809;SDS011;387;48.772;9.186;2024-02-23T06:18:59;6.90;;;1.20;;
809;SDS011;387;48.772;9.186;2024-02-23T06:21:25;3.43;;;1.10;;
809;SDS011;387;48.772;9.186;2024-02-23T06:23:51;3.63;;;1.27;;
809;SDS011;387;48.772;9.186;2024-02-23T06:26:17;4.23;;;0.90;;
809;SDS011;387;48.772;9.186;2024-02-23T06:28:42;5.00;;;1.20;;
809;SDS011;387;48.772;9.186;2024-02-23T06:31:08;2.40;;;1.00;;
809;SDS011;387;48.772;9.186;2024-02-23T06:33:34;7.73;;;1.00;;
809;SDS011;387;48.772;9.186;2024-02-23T06:36:00;2.03;;;1.30;;
809;SDS011;387;48.772;9.186;2024-02-23T06:38:29;1.20;;;1.00;;
809;SDS011;387;48.772;9.186;2024-02-23T06:40:55;1.73;;;1.43;;
809;SDS011;387;48.772;9.186;2024-02-23T06:43:21;2.90;;;1.00;;
809;SDS011;387;48.772;9.186;2024-02-23T06:45:47;1.40;;;1.00;;
809;SDS011;387;48.772;9.186;2024-02-23T06:48:12;3.20;;;1.20;;
809;SDS011;387;48.772;9.186;2024-02-23T06:50:38;7.20;;;1.50;;
809;SDS011;387;48.772;9.186;2024-02-23T06:53:05;5.67;;;1.60;;
809;SDS011;387;48.772;9.186;2024-02-23T06:55:31;2.80;;;1.10;;
809;SDS011;387;48.772;9.186;2024-02-23T06:57:59;2.70;;;1.17;;
809;SDS011;387;48.772;9.186;2024-02-23T07:00:24;3.00;;;1.40;;
809;SDS011;387;48.772;9.186;2024-02-23T07:02:50;2.80;;;0.90;;
809;SDS011;387;48.772;9.186;2024-02-23T07:05:16;31.07;;;3.30;;
809;SDS011;387;48.772;9.186;2024-02-23T07:07:41;19.87;;;3.13;;
809;SDS011;387;48.772;9.186;2024-02-23T07:10:07;5.97;;;1.50;;
809;SDS011;387;48.772;9.186;2024-02-23T07:12:33;3.90;;;1.50;;
809;SDS011;387;48.772;9.186;2024-02-23T07:15:00;7.60;;;1.80;;
809;SDS011;387;48.772;9.186;2024-02-23T07:17:26;6.87;;;1.67;;
809;SDS011;387;48.772;9.186;2024-02-23T07:19:53;6.40;;;2.30;;
809;SDS011;387;48.772;9.186;2024-02-23T07:22:18;12.03;;;2.20;;
809;SDS011;387;48.772;9.186;2024-02-23T07:24:45;15.17;;;1.90;;
809;SDS011;387;48.772;9.186;2024-02-23T07:27:10;9.40;;;2.00;;
809;SDS011;387;48.772;9.186;2024-02-23T07:29:36;9.20;;;2.20;;
809;SDS011;387;48.772;9.186;2024-02-23T07:32:02;6.03;;;1.60;;
809;SDS011;387;48.772;9.186;2024-02-23T07:34:27;7.00;;;1.93;;
809;SDS011;387;48.772;9.186;2024-02-23T07:36:55;7.53;;;1.70;;
809;SDS011;387;48.772;9.186;2024-02-23T07:39:21;3.90;;;1.17;;
809;SDS011;387;48.772;9.186;2024-02-23T07:41:47;2.57;;;1.30;;
809;SDS011;387;48.772;9.186;2024-02-23T07:44:13;2.60;;;1.40;;
809;SDS011;387;48.772;9.186;2024-02-23T07:46:38;2.03;;;1.10;;
809;SDS011;387;48.772;9.186;2024-02-23T07:49:04;3.50;;;1.17;;
809;SDS011;387;48.772;9.186;2024-02-23T07:51:31;3.10;;;1.57;;
809;SDS011;387;48.772;9.186;2024-02-23T07:53:57;2.27;;;1.10;;
809;SDS011;387;48.772;9.186;2024-02-23T07:56:23;1.90;;;1.40;;
809;SDS011;387;48.772;9.186;2024-02-23T07:58:48;1.63;;;1.10;;
809;SDS011;387;48.772;9.186;2024-02-23T08:01:14;2.50;;;1.60;;
809;SDS011;387;48.772;9.186;2024-02-23T08:03:40;2.87;;;1.63;;
809;SDS011;387;48.772;9.186;2024-02-23T08:06:06;5.90;;;1.67;;
809;SDS011;387;48.772;9.186;2024-02-23T08:08:32;8.10;;;1.60;;
809;SDS011;387;48.772;9.186;2024-02-23T08:11:02;6.00;;;1.50;;
809;SDS011;387;48.772;9.186;2024-02-23T08:13:28;3.47;;;1.33;;
809;SDS011;387;48.772;9.186;2024-02-23T08:15:54;3.07;;;1.40;;
809;SDS011;387;48.772;9.186;2024-02-23T08:18:20;17.10;;;2.90;;
809;SDS011;387;48.772;9.186;2024-02-23T08:20:47;5.07;;;2.07;;
809;SDS011;387;48.772;9.186;2024-02-23T08:23:13;7.60;;;1.40;;
809;SDS011;387;48.772;9.186;2024-02-23T08:25:39;4.77;;;1.37;;
809;SDS011;387;48.772;9.186;2024-02-23T08:28:04;5.90;;;1.43;;
809;SDS011;387;48.772;9.186;2024-02-23T08:30:31;4.03;;;2.00;;
809;SDS011;387;48.772;9.186;2024-02-23T08:32:56;4.90;;;1.50;;
809;SDS011;387;48.772;9.186;2024-02-23T08:35:22;3.60;;;1.90;;
809;SDS011;387;48.772;9.186;2024-02-23T08:37:47;2.83;;;1.20;;
809;SDS011;387;48.772;9.186;2024-02-23T08:40:13;1.73;;;1.30;;
809;SDS011;387;48.772;9.186;2024-02-23T08:42:39;2.00;;;1.40;;
809;SDS011;387;48.772;9.186;2024-02-23T08:45:04;5.13;;;1.37;;
809;SDS011;387;48.772;9.186;2024-02-23T08:47:30;4.23;;;1.73;;
809;SDS011;387;48.772;9.186;2024-02-23T08:50:00;9.40;;;1.40;;
809;SDS011;387;48.772;9.186;2024-02-23T08:52:26;2.87;;;1.43;;
809;SDS011;387;48.772;9.186;2024-02-23T08:54:52;2.17;;;1.20;;
809;SDS011;387;48.772;9.186;2024-02-23T08:57:18;4.90;;;1.50;;
809;SDS011;387;48.772;9.186;2024-02-23T08:59:45;4.00;;;1.30;;
809;SDS011;387;48.772;9.186;2024-02-23T09:02:11;3.90;;;1.33;;
809;SDS011;387;48.772;9.186;2024-02-23T09:04:37;16.43;;;2.00;;
809;SDS011;387;48.772;9.186;2024-02-23T09:07:03;5.37;;;1.70;;
809;SDS011;387;48.772;9.186;2024-02-23T09:09:29;4.70;;;1.67;;
809;SDS011;387;48.772;9.186;2024-02-23T09:11:55;6.30;;;1.20;;
809;SDS011;387;48.772;9.186;2024-02-23T09:14:20;3.30;;;1.73;;
809;SDS011;387;48.772;9.186;2024-02-23T09:16:46;3.40;;;1.30;;
809;SDS011;387;48.772;9.186;2024-02-23T09:19:12;2.70;;;1.43;;
809;SDS011;387;48.772;9.186;2024-02-23T09:21:38;4.97;;;1.37;;
809;SDS011;387;48.772;9.186;2024-02-23T09:24:04;6.40;;;1.90;;
809;SDS011;387;48.772;9.186;2024-02-23T09:26:30;8.40;;;1.70;;
809;SDS011;387;48.772;9.186;2024-02-23T09:28:56;2.70;;;1.27;;
809;SDS011;387;48.772;9.186;2024-02-23T09:31:21;2.40;;;1.27;;
809;SDS011;387;48.772;9.186;2024-02-23T09:33:47;3.13;;;1.23;;
809;SDS011;387;48.772;9.186;2024-02-23T09:36:15;5.10;;;1.13;;
809;SDS011;387;48.772;9.186;2024-02-23T09:38:41;5.63;;;1.33;;
809;SDS011;387;48.772;9.186;2024-02-23T09:41:08;3.77;;;1.10;;
809;SDS011;387;48.772;9.186;2024-02-23T09:43:43;3.00;;;1.30;;
809;SDS011;387;48.772;9.186;2024-02-23T09:46:11;5.10;;;1.03;;
809;SDS011;387;48.772;9.186;2024-02-23T09:48:37;1.73;;;0.90;;
809;SDS011;387;48.772;9.186;2024-02-23T09:51:03;9.33;;;1.83;;
809;SDS011;387;48.772;9.186;2024-02-23T09:53:30;5.10;;;1.83;;
809;SDS011;387;48.772;9.186;2024-02-23T09:55:57;2.87;;;1.53;;
809;SDS011;387;48.772;9.186;2024-02-23T09:58:25;3.50;;;1.03;;
809;SDS011;387;48.772;9.186;2024-02-23T10:00:54;2.20;;;1.10;;
809;SDS011;387;48.772;9.186;2024-02-23T10:03:23;6.10;;;1.40;;
809;SDS011;387;48.772;9.186;2024-02-23T10:05:55;7.83;;;1.37;;
809;SDS011;387;48.772;9.186;2024-02-23T10:08:26;4.33;;;1.10;;
809;SDS011;387;48.772;9.186;2024-02-23T10:10:54;7.50;;;1.30;;
809;SDS011;387;48.772;9.186;2024-02-23T10:13:22;4.57;;;1.20;;
809;SDS011;387;48.772;9.186;2024-02-23T10:15:51;9.93;;;1.60;;
809;SDS011;387;48.772;9.186;2024-02-23T10:18:17;9.07;;;1.97;;
809;SDS011;387;48.772;9.186;2024-02-23T10:20:43;6.10;;;1.90;;
809;SDS011;387;48.772;9.186;2024-02-23T10:23:08;6.23;;;1.57;;
809;SDS011;387;48.772;9.186;2024-02-23T10:25:35;5.53;;;1.33;;
809;SDS011;387;48.772;9.186;2024-02-23T10:28:01;6.80;;;1.50;;
809;SDS011;387;48.772;9.186;2024-02-23T10:30:27;3.80;;;1.30;;
809;SDS011;387;48.772;9.186;2024-02-23T10:32:55;12.87;;;2.50;;
809;SDS011;387;48.772;9.186;2024-02-23T10:35:22;5.30;;;1.10;;
809;SDS011;387;48.772;9.186;2024-02-23T10:37:48;5.40;;;1.30;;
809;SDS011;387;48.772;9.186;2024-02-23T10:40:16;4.10;;;1.40;;
809;SDS011;387;48.772;9.186;2024-02-23T10:42:44;2.53;;;1.33;;
809;SDS011;387;48.772;9.186;2024-02-23T10:45:16;11.53;;;2.80;;
809;SDS011;387;48.772;9.186;2024-02-23T10:47:43;4.40;;;1.40;;
809;SDS011;387;48.772;9.186;2024-02-23T10:50:09;3.10;;;1.20;;
809;SDS011;387;48.772;9.186;2024-02-23T10:52:39;6.60;;;1.53;;
809;SDS011;387;48.772;9.186;2024-02-23T10:55:07;2.10;;;1.17;;
809;SDS011;387;48.772;9.186;2024-02-23T10:57:37;5.30;;;1.30;;
809;SDS011;387;48.772;9.186;2024-02-23T11:00:04;2.77;;;1.30;;
809;SDS011;387;48.772;9.186;2024-02-23T11:02:43;3.67;;;1.30;;
809;SDS011;387;48.772;9.186;2024-02-23T11:05:32;3.30;;;1.13;;
809;SDS011;387;48.772;9.186;2024-02-23T11:07:58;2.87;;;1.40;;
809;SDS011;387;48.772;9.186;2024-02-23T11:10:24;2.77;;;1.10;;
809;SDS011;387;48.772;9.186;2024-02-23T11:12:59;5.30;;;1.50;;
809;SDS011;387;48.772;9.186;2024-02-23T11:15:29;2.97;;;1.23;;
809;SDS011;387;48.772;9.186;2024-02-23T11:17:58;6.70;;;1.43;;
809;SDS011;387;48.772;9.186;2024-02-23T11:20:33;8.47;;;1.43;;
809;SDS011;387;48.772;9.186;2024-02-23T11:23:00;4.30;;;1.30;;
809;SDS011;387;48.772;9.186;2024-02-23T11:25:29;6.73;;;1.70;;
809;SDS011;387;48.772;9.186;2024-02-23T11:27:54;4.40;;;1.27;;
809;SDS011;387;48.772;9.186;2024-02-23T11:30:20;4.03;;;0.97;;
809;SDS011;387;48.772;9.186;2024-02-23T11:32:46;4.57;;;1.40;;
809;SDS011;387;48.772;9.186;2024-02-23T11:35:16;4.40;;;1.40;;
809;SDS011;387;48.772;9.186;2024-02-23T11:37:51;5.93;;;1.57;;
809;SDS011;387;48.772;9.186;2024-02-23T11:40:23;2.30;;;1.17;;
809;SDS011;387;48.772;9.186;2024-02-23T11:42:56;5.10;;;1.33;;
809;SDS011;387;48.772;9.186;2024-02-23T11:45:24;2.83;;;1.10;;
809;SDS011;387;48.772;9.186;2024-02-23T11:47:50;5.23;;;1.40;;
809;SDS011;387;48.772;9.186;2024-02-23T11:50:16;5.37;;;1.93;;
809;SDS011;387;48.772;9.186;2024-02-23T11:52:44;3.47;;;1.40;;
809;SDS011;387;48.772;9.186;2024-02-23T11:55:10;4.13;;;1.20;;
809;SDS011;387;48.772;9.186;2024-02-23T11:57:36;2.27;;;1.20;;
809;SDS011;387;48.772;9.186;2024-02-23T12:00:03;2.30;;;1.30;;
809;SDS011;387;48.772;9.186;2024-02-23T12:02:35;4.20;;;1.20;;
809;SDS011;387;48.772;9.186;2024-02-23T12:05:00;3.40;;;1.37;;
809;SDS011;387;48.772;9.186;2024-02-23T12:07:29;4.47;;;1.40;;
809;SDS011;387;48.772;9.186;2024-02-23T12:09:55;2.67;;;1.13;;
809;SDS011;387;48.772;9.186;2024-02-23T12:12:22;3.90;;;1.27;;
809;SDS011;387;48.772;9.186;2024-02-23T12:14:48;2.77;;;1.30;;
809;SDS011;387;48.772;9.186;2024-02-23T12:17:14;4.90;;;1.30;;
809;SDS011;387;48.772;9.186;2024-02-23T12:19:40;4.37;;;1.57;;
809;SDS011;387;48.772;9.186;2024-02-23T12:22:06;3.97;;;1.40;;
809;SDS011;387;48.772;9.186;2024-02-23T12:24:32;17.70;;;3.13;;
809;SDS011;387;48.772;9.186;2024-02-23T12:26:59;6.63;;;1.63;;
809;SDS011;387;48.772;9.186;2024-02-23T12:29:24;8.60;;;1.60;;
809;SDS011;387;48.772;9.186;2024-02-23T12:31:50;5.30;;;1.50;;
809;SDS011;387;48.772;9.186;2024-02-23T12:34:17;5.90;;;1.30;;
809;SDS011;387;48.772;9.186;2024-02-23T12:36:45;5.40;;;1.73;;
809;SDS011;387;48.772;9.186;2024-02-23T12:39:11;7.27;;;1.70;;
809;SDS011;387;48.772;9.186;2024-02-23T12:41:37;11.00;;;1.93;;
809;SDS011;387;48.772;9.186;2024-02-23T12:44:03;6.90;;;1.80;;
809;SDS011;387;48.772;9.186;2024-02-23T12:46:28;2.23;;;1.20;;
809;SDS011;387;48.772;9.186;2024-02-23T12:48:54;6.20;;;1.50;;
809;SDS011;387;48.772;9.186;2024-02-23T12:51:19;5.83;;;1.43;;
809;SDS011;387;48.772;9.186;2024-02-23T12:53:50;3.47;;;1.67;;
809;SDS011;387;48.772;9.186;2024-02-23T12:56:16;3.37;;;1.40;;
809;SDS011;387;48.772;9.186;2024-02-23T12:58:43;6.93;;;1.43;;
809;SDS011;387;48.772;9.186;2024-02-23T13:01:09;4.20;;;1.50;;
809;SDS011;387;48.772;9.186;2024-02-23T13:03:35;6.67;;;1.60;;
809;SDS011;387;48.772;9.186;2024-02-23T13:06:02;2.93;;;1.30;;
809;SDS011;387;48.772;9.186;2024-02-23T13:08:28;7.87;;;1.43;;
809;SDS011;387;48.772;9.186;2024-02-23T13:10:54;4.37;;;1.40;;
809;SDS011;387;48.772;9.186;2024-02-23T13:13:20;4.10;;;1.77;;
809;SDS011;387;48.772;9.186;2024-02-23T13:15:47;5.33;;;1.60;;
809;SDS011;387;48.772;9.186;2024-02-23T13:18:13;2.87;;;1.30;;
809;SDS011;387;48.772;9.186;2024-02-23T13:20:39;5.53;;;1.60;;
809;SDS011;387;48.772;9.186;2024-02-23T13:23:08;6.10;;;1.50;;
809;SDS011;387;48.772;9.186;2024-02-23T13:25:38;4.20;;;1.67;;
809;SDS011;387;48.772;9.186;2024-02-23T13:28:04;6.63;;;1.80;;
809;SDS011;387;48.772;9.186;2024-02-23T13:30:31;12.63;;;2.30;;
809;SDS011;387;48.772;9.186;2024-02-23T13:32:57;14.63;;;2.13;;
809;SDS011;387;48.772;9.186;2024-02-23T13:35:23;9.57;;;1.70;;
809;SDS011;387;48.772;9.186;2024-02-23T13:37:49;4.57;;;1.80;;
809;SDS011;387;48.772;9.186;2024-02-23T13:40:15;17.40;;;1.97;;
809;SDS011;387;48.772;9.186;2024-02-23T13:42:41;6.60;;;1.53;;
809;SDS011;387;48.772;9.186;2024-02-23T13:45:07;4.77;;;1.50;;
809;SDS011;387;48.772;9.186;2024-02-23T13:47:34;21.07;;;3.30;;
809;SDS011;387;48.772;9.186;2024-02-23T13:50:00;7.80;;;2.70;;
809;SDS011;387;48.772;9.186;2024-02-23T13:52:26;8.30;;;2.27;;
809;SDS011;387;48.772;9.186;2024-02-23T13:54:52;5.23;;;1.40;;
809;SDS011;387;48.772;9.186;2024-02-23T13:57:18;5.00;;;1.80;;
809;SDS011;387;48.772;9.186;2024-02-23T13:59:43;10.50;;;2.73;;
809;SDS011;387;48.772;9.186;2024-02-23T14:02:09;15.43;;;2.77;;
809;SDS011;387;48.772;9.186;2024-02-23T14:04:35;10.30;;;2.00;;
809;SDS011;387;48.772;9.186;2024-02-23T14:07:01;26.10;;;3.00;;
809;SDS011;387;48.772;9.186;2024-02-23T14:09:26;11.97;;;3.60;;
809;SDS011;387;48.772;9.186;2024-02-23T14:11:52;7.93;;;1.87;;
809;SDS011;387;48.772;9.186;2024-02-23T14:14:18;4.23;;;1.90;;
809;SDS011;387;48.772;9.186;2024-02-23T14:16:45;11.77;;;2.57;;
809;SDS011;387;48.772;9.186;2024-02-23T14:19:10;17.13;;;2.40;;
809;SDS011;387;48.772;9.186;2024-02-23T14:21:36;3.20;;;1.47;;
809;SDS011;387;48.772;9.186;2024-02-23T14:24:02;16.73;;;2.93;;
809;SDS011;387;48.772;9.186;2024-02-23T14:26:28;7.00;;;1.50;;
809;SDS011;387;48.772;9.186;2024-02-23T14:28:54;2.80;;;1.23;;
809;SDS011;387;48.772;9.186;2024-02-23T14:31:19;3.20;;;1.67;;
809;SDS011;387;48.772;9.186;2024-02-23T14:33:45;15.47;;;3.00;;
809;SDS011;387;48.772;9.186;2024-02-23T14:36:10;2.90;;;1.60;;
809;SDS011;387;48.772;9.186;2024-02-23T14:38:36;3.90;;;1.70;;
809;SDS011;387;48.772;9.186;2024-02-23T14:41:02;11.07;;;2.17;;
809;SDS011;387;48.772;9.186;2024-02-23T14:43:28;10.17;;;2.23;;
809;SDS011;387;48.772;9.186;2024-02-23T14:45:56;7.33;;;2.17;;
809;SDS011;387;48.772;9.186;2024-02-23T14:48:22;5.00;;;1.90;;
809;SDS011;387;48.772;9.186;2024-02-23T14:50:47;5.30;;;1.80;;
809;SDS011;387;48.772;9.186;2024-02-23T14:53:14;5.80;;;1.73;;
809;SDS011;387;48.772;9.186;2024-02-23T14:55:40;6.53;;;2.00;;
809;SDS011;387;48.772;9.186;2024-02-23T14:58:06;5.10;;;1.70;;
809;SDS011;387;48.772;9.186;2024-02-23T15:00:31;4.73;;;2.00;;
809;SDS011;387;48.772;9.186;2024-02-23T15:02:58;2.77;;;1.70;;
809;SDS011;387;48.772;9.186;2024-02-23T15:05:24;5.63;;;1.50;;
809;SDS011;387;48.772;9.186;2024-02-23T15:07:49;5.80;;;1.60;;
809;SDS011;387;48.772;9.186;2024-02-23T15:10:15;3.80;;;1.93;;
809;SDS011;387;48.772;9.186;2024-02-23T15:12:41;12.10;;;4.47;;
809;SDS011;387;48.772;9.186;2024-02-23T15:15:07;4.43;;;2.83;;
809;SDS011;387;48.772;9.186;2024-02-23T15:17:32;10.50;;;2.00;;
809;SDS011;387;48.772;9.186;2024-02-23T15:19:58;8.43;;;2.57;;
809;SDS011;387;48.772;9.186;2024-02-23T15:22:24;9.87;;;2.10;;
809;SDS011;387;48.772;9.186;2024-02-23T15:24:51;5.37;;;1.90;;
809;SDS011;387;48.772;9.186;2024-02-23T15:27:17;3.83;;;1.40;;
809;SDS011;387;48.772;9.186;2024-02-23T15:29:43;4.97;;;2.20;;
809;SDS011;387;48.772;9.186;2024-02-23T15:32:09;4.67;;;1.60;;
809;SDS011;387;48.772;9.186;2024-02-23T15:34:37;4.67;;;2.10;;
809;SDS011;387;48.772;9.186;2024-02-23T15:37:03;5.53;;;2.00;;
809;SDS011;387;48.772;9.186;2024-02-23T15:39:28;3.90;;;1.37;;